sensor_id;sensor_type;location;lat;lon;timestamp;P1;durP1;ratioP1;P2;durP2;ratioP2
24096;SDS011;12275;48.550;12.132;2023-12-20T12:58:01;1967.60;;;999.90;;
24096;SDS011;12275;48.550;12.132;2023-12-20T13:05:19;1958.60;;;999.90;;
24096;SDS011;12275;48.550;12.132;2023-12-20T13:07:45;1956.50;;;999.90;;
24096;SDS011;12275;48.550;12.132;2023-12-20T13:12:37;1954.80;;;999.90;;
24096;SDS011;12275;48.550;12.132;2023-12-20T13:29:39;1949.50;;;999.90;;
24096;SDS011;12275;48.550;12.132;2023-12-20T13:34:31;1947.00;;;999.90;;
24096;SDS011;12275;48.550;12.132;2023-12-20T13:36:57;1945.50;;;999.90;;
24096;SDS011;12275;48.550;12.132;2023-12-20T13:51:33;1952.85;;;999.90;;
24096;SDS011;12275;48.550;12.132;2023-12-20T13:53:59;1949.60;;;999.90;;
24096;SDS011;12275;48.550;12.132;2023-12-20T13:56:25;1949.00;;;999.90;;
24096;SDS011;12275;48.550;12.132;2023-12-20T14:03:43;1952.10;;;999.90;;
24096;SDS011;12275;48.550;12.132;2023-12-20T14:13:30;1952.90;;;999.90;;
24096;SDS011;12275;48.550;12.132;2023-12-20T14:23:15;1947.60;;;999.90;;
24096;SDS011;12275;48.550;12.132;2023-12-20T14:28:07;1948.25;;;999.90;;
24096;SDS011;12275;48.550;12.132;2023-12-20T14:30:35;1948.90;;;999.90;;
24096;SDS011;12275;48.550;12.132;2023-12-20T14:33:03;1949.85;;;999.90;;
24096;SDS011;12275;48.550;12.132;2023-12-20T14:42:46;1949.90;;;999.90;;
24096;SDS011;12275;48.550;12.132;2023-12-20T14:47:39;1947.80;;;999.90;;
24096;SDS011;12275;48.550;12.132;2023-12-20T14:50:05;1944.40;;;999.90;;
24096;SDS011;12275;48.550;12.132;2023-12-20T14:52:32;1945.70;;;999.90;;
24096;SDS011;12275;48.550;12.132;2023-12-20T14:59:51;1941.20;;;999.90;;
24096;SDS011;12275;48.550;12.132;2023-12-20T15:02:17;1944.90;;;999.90;;
24096;SDS011;12275;48.550;12.132;2023-12-20T15:04:44;1947.80;;;999.90;;
24096;SDS011;12275;48.550;12.132;2023-12-20T15:07:10;1943.70;;;999.90;;
24096;SDS011;12275;48.550;12.132;2023-12-20T15:12:02;1944.20;;;999.90;;
24096;SDS011;12275;48.550;12.132;2023-12-20T15:14:29;1945.10;;;999.90;;
24096;SDS011;12275;48.550;12.132;2023-12-20T15:21:47;1941.10;;;999.90;;
24096;SDS011;12275;48.550;12.132;2023-12-20T15:29:10;1944.00;;;999.90;;
24096;SDS011;12275;48.550;12.132;2023-12-20T15:34:03;1942.30;;;999.90;;
24096;SDS011;12275;48.550;12.132;2023-12-20T15:36:29;1943.60;;;999.90;;
24096;SDS011;12275;48.550;12.132;2023-12-20T15:38:55;1942.00;;;999.90;;
24096;SDS011;12275;48.550;12.132;2023-12-20T15:43:47;1943.10;;;999.90;;
24096;SDS011;12275;48.550;12.132;2023-12-20T15:48:39;1947.95;;;999.90;;
24096;SDS011;12275;48.550;12.132;2023-12-20T15:51:05;1940.00;;;999.90;;
24096;SDS011;12275;48.550;12.132;2023-12-20T15:55:58;1940.85;;;999.90;;
24096;SDS011;12275;48.550;12.132;2023-12-20T16:00:49;1945.85;;;999.90;;
24096;SDS011;12275;48.550;12.132;2023-12-20T16:03:16;1942.70;;;999.90;;
24096;SDS011;12275;48.550;12.132;2023-12-20T16:05:42;1940.80;;;999.90;;
24096;SDS011;12275;48.550;12.132;2023-12-20T16:08:08;1938.40;;;999.90;;
24096;SDS011;12275;48.550;12.132;2023-12-20T16:13:00;1940.95;;;999.90;;
24096;SDS011;12275;48.550;12.132;2023-12-20T16:22:44;1937.00;;;999.90;;
24096;SDS011;12275;48.550;12.132;2023-12-20T16:25:10;1940.50;;;999.90;;
24096;SDS011;12275;48.550;12.132;2023-12-20T17:33:14;1997.43;;;999.90;;
24096;SDS011;12275;48.550;12.132;2023-12-20T17:35:40;1999.90;;;999.90;;
24096;SDS011;12275;48.550;12.132;2023-12-20T17:38:06;1999.90;;;999.90;;
24096;SDS011;12275;48.550;12.132;2023-12-20T17:40:33;1999.90;;;999.90;;
24096;SDS011;12275;48.550;12.132;2023-12-20T17:43:00;1999.90;;;999.90;;
24096;SDS011;12275;48.550;12.132;2023-12-20T17:45:26;1999.90;;;999.90;;
24096;SDS011;12275;48.550;12.132;2023-12-20T20:23:47;1920.20;;;999.90;;
24096;SDS011;12275;48.550;12.132;2023-12-20T21:39:23;1909.40;;;999.90;;
24096;SDS011;12275;48.550;12.132;2023-12-20T21:41:52;1915.80;;;999.90;;
24096;SDS011;12275;48.550;12.132;2023-12-20T21:46:43;1915.20;;;999.90;;
24096;SDS011;12275;48.550;12.132;2023-12-20T21:49:09;1912.10;;;999.90;;
24096;SDS011;12275;48.550;12.132;2023-12-20T21:56:28;1910.60;;;999.90;;
24096;SDS011;12275;48.550;12.132;2023-12-20T21:58:54;1901.40;;;999.90;;
24096;SDS011;12275;48.550;12.132;2023-12-20T22:03:46;1913.30;;;999.90;;
24096;SDS011;12275;48.550;12.132;2023-12-20T22:08:38;1926.57;;;999.90;;
24096;SDS011;12275;48.550;12.132;2023-12-20T22:11:04;1924.10;;;999.90;;
24096;SDS011;12275;48.550;12.132;2023-12-20T22:13:30;1915.40;;;999.90;;
24096;SDS011;12275;48.550;12.132;2023-12-20T22:15:57;1919.10;;;999.90;;
24096;SDS011;12275;48.550;12.132;2023-12-20T22:18:23;1916.70;;;999.90;;
24096;SDS011;12275;48.550;12.132;2023-12-20T22:20:49;1911.40;;;999.90;;
24096;SDS011;12275;48.550;12.132;2023-12-20T22:23:16;1911.45;;;999.90;;
24096;SDS011;12275;48.550;12.132;2023-12-20T22:25:42;1927.70;;;999.90;;
24096;SDS011;12275;48.550;12.132;2023-12-20T22:28:08;1922.70;;;999.90;;
24096;SDS011;12275;48.550;12.132;2023-12-20T22:30:34;1913.00;;;999.90;;
24096;SDS011;12275;48.550;12.132;2023-12-20T22:37:52;1924.00;;;999.90;;
24096;SDS011;12275;48.550;12.132;2023-12-20T22:40:19;1919.45;;;999.90;;
24096;SDS011;12275;48.550;12.132;2023-12-20T22:42:45;1925.00;;;999.90;;
24096;SDS011;12275;48.550;12.132;2023-12-20T22:45:12;1921.80;;;999.90;;
24096;SDS011;12275;48.550;12.132;2023-12-20T22:47:38;1922.95;;;999.90;;
24096;SDS011;12275;48.550;12.132;2023-12-20T22:50:05;1930.40;;;999.90;;
24096;SDS011;12275;48.550;12.132;2023-12-20T22:52:31;1926.60;;;999.90;;
24096;SDS011;12275;48.550;12.132;2023-12-20T22:54:57;1929.40;;;999.90;;
24096;SDS011;12275;48.550;12.132;2023-12-20T22:57:23;1927.10;;;999.90;;
24096;SDS011;12275;48.550;12.132;2023-12-20T22:59:50;1926.50;;;999.90;;
24096;SDS011;12275;48.550;12.132;2023-12-20T23:02:17;1930.70;;;999.90;;
24096;SDS011;12275;48.550;12.132;2023-12-20T23:04:43;1929.05;;;999.90;;
24096;SDS011;12275;48.550;12.132;2023-12-20T23:07:09;1927.95;;;999.90;;
24096;SDS011;12275;48.550;12.132;2023-12-20T23:09:35;1931.60;;;999.90;;
24096;SDS011;12275;48.550;12.132;2023-12-20T23:12:02;1933.10;;;999.90;;
24096;SDS011;12275;48.550;12.132;2023-12-20T23:14:31;1928.95;;;999.90;;
24096;SDS011;12275;48.550;12.132;2023-12-20T23:16:57;1930.10;;;999.90;;
24096;SDS011;12275;48.550;12.132;2023-12-20T23:19:23;1929.50;;;999.90;;
24096;SDS011;12275;48.550;12.132;2023-12-20T23:21:50;1933.25;;;999.90;;
24096;SDS011;12275;48.550;12.132;2023-12-20T23:24:17;1933.18;;;999.90;;
24096;SDS011;12275;48.550;12.132;2023-12-20T23:26:43;1929.85;;;999.90;;
24096;SDS011;12275;48.550;12.132;2023-12-20T23:29:09;1928.70;;;999.90;;
24096;SDS011;12275;48.550;12.132;2023-12-20T23:31:35;1943.45;;;999.90;;
24096;SDS011;12275;48.550;12.132;2023-12-20T23:34:01;1936.00;;;999.90;;
24096;SDS011;12275;48.550;12.132;2023-12-20T23:36:27;1935.22;;;999.90;;
24096;SDS011;12275;48.550;12.132;2023-12-20T23:38:53;1935.15;;;999.90;;
24096;SDS011;12275;48.550;12.132;2023-12-20T23:41:19;1934.20;;;999.90;;
24096;SDS011;12275;48.550;12.132;2023-12-20T23:43:45;1937.13;;;999.90;;
24096;SDS011;12275;48.550;12.132;2023-12-20T23:46:11;1933.95;;;999.90;;
24096;SDS011;12275;48.550;12.132;2023-12-20T23:48:37;1927.90;;;999.90;;
24096;SDS011;12275;48.550;12.132;2023-12-20T23:51:03;1929.72;;;999.90;;
24096;SDS011;12275;48.550;12.132;2023-12-20T23:53:30;1927.13;;;999.90;;
24096;SDS011;12275;48.550;12.132;2023-12-20T23:55:56;1930.95;;;999.90;;
24096;SDS011;12275;48.550;12.132;2023-12-20T23:58:22;1923.72;;;999.90;;
